Time;durP1;ratioP1;P1;durP2;ratioP2;P2;SDS_P1;SDS_P2;PMS_P1;PMS_P2;Temp;Humidity;BMP_temperature;BMP_pressure;BME280_temperature;BME280_humidity;BME280_pressure;Samples;Min_cycle;Max_cycle;Signal;HPM_P1;HPM_P2
2022/10/13 00:01:16;;;;;;;29.37;13.60;;;12.90;94.60;;;;;;5038148;28;20768;-70
2022/10/13 00:03:45;;;;;;;35.03;14.60;;;12.90;94.70;;;;;;5038199;28;20286;-70
2022/10/13 00:06:12;;;;;;;28.73;12.83;;;12.80;94.80;;;;;;5025630;28;20484;-69
2022/10/13 00:08:39;;;;;;;23.80;13.83;;;12.80;94.80;;;;;;5027493;28;20453;-70
2022/10/13 00:11:22;;;;;;;23.53;13.40;;;12.80;94.80;;;;;;5027014;28;20431;-69
2022/10/13 00:13:49;;;;;;;23.00;13.57;;;12.90;94.80;;;;;;5025300;28;20431;-70
2022/10/13 00:16:18;;;;;;;30.87;14.27;;;12.90;94.70;;;;;;5020916;28;20463;-71
2022/10/13 00:18:44;;;;;;;22.33;12.40;;;12.90;94.70;;;;;;5026045;28;20444;-70
2022/10/13 00:21:13;;;;;;;26.70;14.40;;;12.90;94.70;;;;;;5027050;28;20428;-69
2022/10/13 00:23:40;;;;;;;27.60;14.10;;;12.90;94.50;;;;;;5027041;28;20518;-71
2022/10/13 00:26:09;;;;;;;23.87;12.87;;;12.80;94.40;;;;;;5023226;28;21140;-70
2022/10/13 00:28:35;;;;;;;26.60;13.63;;;12.80;94.40;;;;;;5027944;28;20904;-69
2022/10/13 00:31:01;;;;;;;26.57;13.80;;;12.80;94.50;;;;;;5027499;28;20416;-70
2022/10/13 00:33:26;;;;;;;30.00;14.77;;;12.80;94.50;;;;;;5028278;28;20493;-70
2022/10/13 00:35:52;;;;;;;32.13;15.70;;;12.90;94.70;;;;;;5024121;28;20212;-70
2022/10/13 00:38:20;;;;;;;41.43;17.87;;;12.80;94.70;;;;;;5023614;28;20359;-69
2022/10/13 00:40:52;;;;;;;47.30;18.53;;;12.80;95.10;;;;;;5027944;28;20185;-71
2022/10/13 00:43:48;;;;;;;44.07;18.37;;;12.80;95.30;;;;;;5028913;28;20993;-70
2022/10/13 00:46:14;;;;;;;35.90;17.40;;;12.90;95.30;;;;;;5020657;28;20448;-70
2022/10/13 00:48:42;;;;;;;41.47;19.10;;;12.90;95.20;;;;;;5037232;28;20566;-70
2022/10/13 00:51:10;;;;;;;38.47;18.37;;;12.90;95.30;;;;;;5037871;28;20428;-69
2022/10/13 00:53:37;;;;;;;34.83;17.40;;;12.80;95.40;;;;;;5036379;28;20818;-70
2022/10/13 00:56:06;;;;;;;43.13;18.13;;;12.80;95.50;;;;;;5033786;28;20462;-70
2022/10/13 00:58:33;;;;;;;41.17;19.47;;;12.80;95.60;;;;;;5036758;28;20444;-70
2022/10/13 01:00:59;;;;;;;34.13;16.20;;;12.90;95.70;;;;;;5040641;28;20495;-70
2022/10/13 01:03:25;;;;;;;43.63;17.77;;;12.90;95.50;;;;;;5038629;28;20478;-70
2022/10/13 01:05:55;;;;;;;40.50;18.20;;;12.90;95.50;;;;;;5039493;28;20459;-71
2022/10/13 01:08:21;;;;;;;37.13;16.33;;;13.00;95.60;;;;;;5040149;28;20427;-69
2022/10/13 01:10:56;;;;;;;34.00;16.03;;;13.00;95.60;;;;;;5041900;28;20479;-71
2022/10/13 01:13:37;;;;;;;33.13;16.70;;;13.00;95.60;;;;;;5033821;28;20488;-71
2022/10/13 01:16:15;;;;;;;34.70;17.50;;;13.10;95.50;;;;;;5032466;28;21030;-71
2022/10/13 01:19:10;;;;;;;49.83;17.90;;;13.10;95.30;;;;;;5035460;28;20424;-72
2022/10/13 01:22:10;;;;;;;39.80;17.00;;;13.00;95.10;;;;;;5034523;28;20431;-72
2022/10/13 01:25:06;;;;;;;38.13;17.73;;;13.00;95.30;;;;;;5011328;28;20478;-72
2022/10/13 01:27:56;;;;;;;44.30;18.70;;;12.80;95.30;;;;;;5031655;28;20420;-71
2022/10/13 01:30:22;;;;;;;36.33;16.80;;;12.80;95.50;;;;;;5034035;28;20424;-70
2022/10/13 01:33:12;;;;;;;43.57;18.97;;;12.80;95.70;;;;;;5035801;28;20495;-70
2022/10/13 01:35:46;;;;;;;39.77;18.47;;;12.80;95.80;;;;;;5030593;28;20455;-71
2022/10/13 01:38:28;;;;;;;33.20;17.40;;;12.80;95.80;;;;;;5035544;28;20420;-72
2022/10/13 01:41:10;;;;;;;35.97;16.53;;;12.80;95.80;;;;;;5035123;28;20446;-71
2022/10/13 01:43:50;;;;;;;48.50;17.63;;;12.80;95.80;;;;;;5035853;28;20898;-70
2022/10/13 01:46:23;;;;;;;35.10;16.83;;;12.70;95.70;;;;;;5029486;28;20964;-70
2022/10/13 01:48:52;;;;;;;42.93;17.90;;;12.60;95.80;;;;;;5034008;28;20481;-72
2022/10/13 01:51:20;;;;;;;41.37;17.70;;;12.60;96.10;;;;;;5036305;28;20416;-70
2022/10/13 01:53:47;;;;;;;36.93;18.07;;;12.60;96.10;;;;;;5039759;28;20467;-71
2022/10/13 01:56:13;;;;;;;42.87;19.60;;;12.60;96.10;;;;;;5035331;28;20455;-72
2022/10/13 01:58:39;;;;;;;41.00;18.60;;;12.60;96.10;;;;;;5035394;28;20412;-70
2022/10/13 02:01:21;;;;;;;45.77;18.87;;;12.60;96.20;;;;;;5033329;28;20420;-71
2022/10/13 02:04:24;;;;;;;44.00;20.63;;;12.60;96.30;;;;;;5032828;28;20213;-71
2022/10/13 02:07:01;;;;;;;37.77;16.77;;;12.70;96.30;;;;;;5030332;28;20455;-70
2022/10/13 02:10:13;;;;;;;37.20;19.10;;;12.70;96.30;;;;;;5029641;28;20400;-70
2022/10/13 02:12:43;;;;;;;40.80;17.83;;;12.80;96.10;;;;;;5030102;28;21102;-71
2022/10/13 02:15:14;;;;;;;37.83;18.00;;;12.80;96.00;;;;;;5024253;28;20436;-71
2022/10/13 02:17:40;;;;;;;52.83;17.80;;;12.80;96.00;;;;;;5030824;28;20423;-71
2022/10/13 02:20:07;;;;;;;38.00;16.97;;;12.80;96.00;;;;;;5032609;28;20446;-70
2022/10/13 02:22:39;;;;;;;40.67;17.40;;;12.80;96.10;;;;;;5030146;28;20431;-71
2022/10/13 02:25:06;;;;;;;38.40;18.33;;;12.80;96.10;;;;;;5024014;28;20430;-72
2022/10/13 02:27:32;;;;;;;41.17;19.83;;;12.90;96.10;;;;;;5031640;28;20451;-70
2022/10/13 02:29:58;;;;;;;35.73;17.37;;;12.90;96.00;;;;;;5032100;28;20448;-72
2022/10/13 02:32:23;;;;;;;36.80;19.57;;;12.90;95.90;;;;;;5032400;28;20270;-70
2022/10/13 02:34:50;;;;;;;50.70;19.10;;;13.00;96.00;;;;;;5033007;28;20428;-70
2022/10/13 02:37:16;;;;;;;34.20;16.53;;;13.00;95.70;;;;;;5029386;28;20240;-72
2022/10/13 02:39:41;;;;;;;41.20;18.37;;;13.00;95.70;;;;;;5028284;28;20419;-71
2022/10/13 02:42:07;;;;;;;43.97;18.30;;;13.10;95.60;;;;;;5032415;28;20458;-70
2022/10/13 02:44:32;;;;;;;39.33;17.60;;;13.10;95.60;;;;;;5032059;28;20303;-71
2022/10/13 02:46:58;;;;;;;39.20;17.33;;;13.10;95.40;;;;;;5031233;28;20255;-72
2022/10/13 02:49:24;;;;;;;40.97;17.60;;;13.10;95.50;;;;;;5033089;28;20189;-71
2022/10/13 02:51:49;;;;;;;43.17;18.50;;;13.20;95.30;;;;;;5032495;28;20912;-69
2022/10/13 02:54:15;;;;;;;43.80;18.33;;;13.00;95.20;;;;;;5031942;28;20234;-72
2022/10/13 02:56:41;;;;;;;42.40;16.43;;;13.10;95.40;;;;;;5026813;28;20701;-70
2022/10/13 02:59:06;;;;;;;43.93;18.77;;;13.10;95.40;;;;;;5031788;28;20192;-71
2022/10/13 03:01:32;;;;;;;38.40;17.73;;;13.10;95.20;;;;;;5032248;28;20688;-71
2022/10/13 03:03:58;;;;;;;42.17;18.00;;;13.10;95.20;;;;;;5031884;28;20323;-72
2022/10/13 03:06:24;;;;;;;34.43;16.90;;;13.10;95.30;;;;;;5026335;28;20252;-71
2022/10/13 03:08:50;;;;;;;35.83;16.87;;;13.10;95.20;;;;;;5032119;28;20188;-69
2022/10/13 03:11:15;;;;;;;35.10;16.53;;;13.10;95.20;;;;;;5032460;28;20423;-70
2022/10/13 03:13:41;;;;;;;38.67;16.90;;;13.10;95.20;;;;;;5031725;28;20424;-71
2022/10/13 03:16:07;;;;;;;36.90;17.37;;;13.20;95.40;;;;;;5027556;28;20670;-71
2022/10/13 03:18:33;;;;;;;42.33;17.60;;;13.20;95.30;;;;;;5031107;28;20189;-73
2022/10/13 03:21:02;;;;;;;37.53;17.20;;;13.20;95.10;;;;;;5031787;28;20431;-72
2022/10/13 03:23:28;;;;;;;44.03;18.87;;;13.20;95.20;;;;;;5033832;28;20468;-71
2022/10/13 03:25:53;;;;;;;34.03;17.23;;;13.20;95.20;;;;;;5032493;28;20550;-71
2022/10/13 03:28:20;;;;;;;34.23;17.00;;;13.30;95.20;;;;;;5036005;28;20205;-71
2022/10/13 03:30:45;;;;;;;31.77;15.07;;;13.30;95.10;;;;;;5034779;28;20177;-72
2022/10/13 03:33:11;;;;;;;34.97;15.97;;;13.40;95.00;;;;;;5033242;28;20920;-72
2022/10/13 03:35:37;;;;;;;37.70;17.27;;;13.50;94.90;;;;;;5030337;28;20213;-70
2022/10/13 03:38:02;;;;;;;35.10;17.10;;;13.40;94.60;;;;;;5032314;28;20816;-70
2022/10/13 03:40:28;;;;;;;42.63;19.50;;;13.30;94.40;;;;;;5033104;28;20227;-70
2022/10/13 03:42:54;;;;;;;34.17;17.13;;;13.20;94.70;;;;;;5027968;28;20693;-71
2022/10/13 03:45:19;;;;;;;39.60;16.93;;;13.30;94.90;;;;;;5028959;28;20677;-71
2022/10/13 03:47:45;;;;;;;48.23;16.90;;;13.20;94.90;;;;;;5032625;28;20415;-72
2022/10/13 03:50:11;;;;;;;46.70;18.13;;;13.20;95.00;;;;;;5032218;28;20189;-70
2022/10/13 03:52:37;;;;;;;40.90;17.73;;;13.20;95.10;;;;;;5032065;28;20185;-71
2022/10/13 03:55:03;;;;;;;46.40;18.87;;;13.10;95.00;;;;;;5030305;28;20543;-71
2022/10/13 03:57:29;;;;;;;35.53;18.10;;;13.10;95.10;;;;;;5028896;28;20185;-71
2022/10/13 03:59:56;;;;;;;33.20;17.30;;;13.10;95.10;;;;;;5029975;28;20424;-70
2022/10/13 04:02:22;;;;;;;39.30;16.77;;;13.30;95.20;;;;;;5033096;28;20910;-71
2022/10/13 04:04:48;;;;;;;42.63;16.20;;;13.20;95.00;;;;;;5030791;28;20474;-71
2022/10/13 04:07:13;;;;;;;30.13;15.27;;;13.20;95.10;;;;;;5023491;28;20822;-72
2022/10/13 04:09:39;;;;;;;40.73;17.80;;;13.30;95.10;;;;;;5032724;28;20614;-72
2022/10/13 04:12:05;;;;;;;39.50;16.23;;;13.30;94.70;;;;;;5032251;28;20181;-71
2022/10/13 04:14:30;;;;;;;37.93;16.00;;;13.20;94.70;;;;;;5026212;28;20185;-70
2022/10/13 04:16:56;;;;;;;34.17;18.20;;;13.30;94.90;;;;;;5025070;28;20209;-72
2022/10/13 04:19:21;;;;;;;34.13;16.70;;;13.40;94.50;;;;;;5026121;28;20263;-72
2022/10/13 04:21:47;;;;;;;30.33;17.00;;;13.50;94.40;;;;;;5030103;28;20672;-72
2022/10/13 04:24:13;;;;;;;39.37;15.80;;;13.60;94.30;;;;;;5030564;28;20208;-70
2022/10/13 04:26:39;;;;;;;31.30;14.30;;;13.60;93.90;;;;;;5025287;28;20205;-70
2022/10/13 04:29:06;;;;;;;32.90;14.90;;;13.60;93.60;;;;;;5034542;28;20982;-71
2022/10/13 04:31:33;;;;;;;39.43;16.20;;;13.60;93.30;;;;;;5030956;28;20434;-72
2022/10/13 04:33:58;;;;;;;34.33;15.73;;;13.50;93.30;;;;;;5031323;28;20788;-71
2022/10/13 04:36:24;;;;;;;34.00;15.40;;;13.60;93.00;;;;;;5029206;28;20463;-70
2022/10/13 04:38:50;;;;;;;33.87;15.30;;;13.60;92.90;;;;;;5031301;28;20537;-73
2022/10/13 04:41:17;;;;;;;28.50;14.80;;;13.60;92.60;;;;;;5032640;28;20450;-71
2022/10/13 04:43:45;;;;;;;35.80;15.40;;;13.50;92.70;;;;;;5031715;28;20545;-72
2022/10/13 04:46:18;;;;;;;29.70;13.17;;;13.50;92.90;;;;;;5027742;28;20863;-71
2022/10/13 04:48:44;;;;;;;34.67;15.93;;;13.50;93.10;;;;;;5029752;28;20415;-70
2022/10/13 04:51:19;;;;;;;27.70;15.10;;;13.60;92.80;;;;;;5030396;28;20435;-71
2022/10/13 04:53:45;;;;;;;36.03;15.63;;;13.60;92.60;;;;;;5029477;28;20419;-70
2022/10/13 04:56:13;;;;;;;29.20;15.60;;;13.50;92.60;;;;;;5025853;28;20621;-71
2022/10/13 04:58:39;;;;;;;28.03;13.93;;;13.40;92.70;;;;;;5030008;28;20463;-71
2022/10/13 05:01:06;;;;;;;32.73;15.23;;;13.30;93.00;;;;;;5030286;28;20489;-71
2022/10/13 05:03:33;;;;;;;40.03;16.60;;;13.30;93.00;;;;;;5029540;28;20463;-70
2022/10/13 05:05:59;;;;;;;36.93;16.97;;;13.30;93.00;;;;;;5021692;28;20834;-71
2022/10/13 05:08:25;;;;;;;31.00;14.13;;;13.20;93.10;;;;;;5029829;28;20430;-72
2022/10/13 05:10:55;;;;;;;32.23;13.80;;;13.10;93.10;;;;;;5029863;28;20916;-71
2022/10/13 05:13:20;;;;;;;33.50;14.57;;;13.10;93.30;;;;;;5028058;28;20426;-70
2022/10/13 05:15:46;;;;;;;33.90;14.70;;;13.10;93.30;;;;;;5026935;28;20832;-71
2022/10/13 05:18:12;;;;;;;39.93;16.27;;;13.10;93.40;;;;;;5029977;28;20182;-71
2022/10/13 05:20:37;;;;;;;32.83;14.83;;;13.00;93.50;;;;;;5029812;28;20592;-72
2022/10/13 05:23:03;;;;;;;26.57;14.13;;;13.00;93.70;;;;;;5029548;28;20455;-71
2022/10/13 05:25:28;;;;;;;30.53;15.20;;;13.00;93.80;;;;;;5025104;28;20583;-69
2022/10/13 05:27:54;;;;;;;26.77;13.83;;;13.00;93.80;;;;;;5029249;28;20286;-71
2022/10/13 05:30:19;;;;;;;37.30;14.70;;;13.10;93.80;;;;;;5029751;28;20213;-73
2022/10/13 05:32:45;;;;;;;31.70;15.27;;;13.00;93.80;;;;;;5030620;28;20192;-71
2022/10/13 05:35:10;;;;;;;35.47;16.77;;;13.00;93.80;;;;;;5035009;28;20208;-72
2022/10/13 05:37:36;;;;;;;31.13;13.70;;;13.00;93.70;;;;;;5038374;28;20196;-70
2022/10/13 05:40:02;;;;;;;31.20;15.70;;;13.10;93.50;;;;;;5033867;28;20181;-70
2022/10/13 05:42:28;;;;;;;34.70;14.03;;;13.10;93.30;;;;;;5037098;28;20343;-71
2022/10/13 05:44:55;;;;;;;28.47;14.13;;;13.10;93.20;;;;;;5036034;28;20493;-71
2022/10/13 05:47:25;;;;;;;28.80;13.97;;;13.10;93.30;;;;;;5031745;28;20515;-70
2022/10/13 05:49:51;;;;;;;36.50;13.20;;;13.10;93.40;;;;;;5032232;28;20412;-71
2022/10/13 05:52:17;;;;;;;33.53;15.77;;;13.10;93.40;;;;;;5034715;28;20415;-73
2022/10/13 05:54:46;;;;;;;31.30;14.10;;;13.10;93.20;;;;;;5032975;28;20193;-70
2022/10/13 05:57:27;;;;;;;33.20;15.00;;;13.10;93.10;;;;;;5029088;28;20731;-70
2022/10/13 06:00:12;;;;;;;33.40;14.13;;;13.10;93.20;;;;;;5032955;28;20430;-73
2022/10/13 06:02:43;;;;;;;29.20;13.83;;;13.10;93.20;;;;;;5031078;28;20424;-70
2022/10/13 06:05:13;;;;;;;31.27;15.30;;;13.00;93.30;;;;;;5028852;28;20546;-71
2022/10/13 06:07:39;;;;;;;32.93;15.23;;;13.00;93.30;;;;;;5030344;28;20583;-70
2022/10/13 06:10:05;;;;;;;38.40;17.00;;;13.00;93.50;;;;;;5032790;28;20412;-70
2022/10/13 06:12:30;;;;;;;28.83;14.57;;;13.00;93.50;;;;;;5032749;28;20179;-75
2022/10/13 06:14:56;;;;;;;32.60;14.40;;;13.10;93.60;;;;;;5032639;28;20990;-77
2022/10/13 06:17:21;;;;;;;35.27;16.03;;;13.20;93.20;;;;;;5036184;28;20197;-75
2022/10/13 06:19:47;;;;;;;36.07;15.33;;;13.20;93.10;;;;;;5037023;28;20182;-76
2022/10/13 06:22:13;;;;;;;33.37;15.87;;;13.30;93.00;;;;;;5033652;28;20665;-73
2022/10/13 06:24:38;;;;;;;28.07;14.13;;;13.30;92.90;;;;;;5032691;28;20263;-75
2022/10/13 06:27:04;;;;;;;31.20;15.20;;;13.30;92.90;;;;;;5027589;28;20296;-75
2022/10/13 06:29:29;;;;;;;33.07;14.47;;;13.30;93.00;;;;;;5032327;28;20267;-76
2022/10/13 06:31:55;;;;;;;31.83;15.23;;;13.40;93.00;;;;;;5032066;28;20209;-74
2022/10/13 06:34:20;;;;;;;29.67;14.30;;;13.50;92.70;;;;;;5032478;28;20243;-75
2022/10/13 06:36:46;;;;;;;29.30;15.17;;;13.50;92.20;;;;;;5028026;28;20296;-74
2022/10/13 06:39:11;;;;;;;31.30;14.10;;;13.40;92.30;;;;;;5028912;28;20602;-73
2022/10/13 06:41:37;;;;;;;33.00;15.23;;;13.40;92.30;;;;;;5032003;28;20669;-74
2022/10/13 06:44:03;;;;;;;38.23;15.67;;;13.30;92.50;;;;;;5031431;28;20212;-73
2022/10/13 06:46:30;;;;;;;39.97;15.70;;;13.30;92.60;;;;;;5026700;28;20248;-71
2022/10/13 06:48:55;;;;;;;30.40;15.17;;;13.30;92.70;;;;;;5031895;28;20452;-70
2022/10/13 06:51:21;;;;;;;33.17;15.70;;;13.30;92.80;;;;;;5032099;28;20188;-73
2022/10/13 06:53:46;;;;;;;37.80;14.80;;;13.30;92.80;;;;;;5031910;28;20189;-72
2022/10/13 06:56:13;;;;;;;38.63;14.23;;;13.40;92.70;;;;;;5027187;28;20205;-71
2022/10/13 06:58:38;;;;;;;37.87;15.63;;;13.50;92.60;;;;;;5030877;28;20182;-72
2022/10/13 07:01:05;;;;;;;33.80;16.30;;;13.50;92.30;;;;;;5032261;28;20446;-72
2022/10/13 07:03:31;;;;;;;34.90;15.30;;;13.50;92.20;;;;;;5032031;28;20213;-72
2022/10/13 07:06:04;;;;;;;33.17;16.43;;;13.50;92.40;;;;;;5027640;28;20459;-72
2022/10/13 07:08:33;;;;;;;30.70;14.03;;;13.50;92.20;;;;;;5030855;28;20790;-71
2022/10/13 07:11:04;;;;;;;35.00;14.60;;;13.60;91.80;;;;;;5029332;28;20531;-73
2022/10/13 07:13:30;;;;;;;31.33;13.70;;;13.60;91.80;;;;;;5029484;28;20439;-70
2022/10/13 07:15:55;;;;;;;29.40;13.93;;;13.60;92.00;;;;;;5028926;28;20468;-74
2022/10/13 07:18:21;;;;;;;35.23;14.07;;;13.70;91.50;;;;;;5031159;28;20193;-71
2022/10/13 07:20:46;;;;;;;26.83;13.20;;;13.70;91.20;;;;;;5031177;28;20196;-71
2022/10/13 07:23:12;;;;;;;24.87;11.97;;;13.70;91.20;;;;;;5030830;28;20716;-70
2022/10/13 07:25:38;;;;;;;27.10;12.33;;;13.70;91.40;;;;;;5026481;28;20251;-71
2022/10/13 07:28:04;;;;;;;31.03;12.97;;;13.70;91.20;;;;;;5031074;28;20331;-73
2022/10/13 07:30:29;;;;;;;30.63;13.07;;;13.80;91.30;;;;;;5031165;28;20416;-70
2022/10/13 07:32:55;;;;;;;24.73;12.20;;;13.90;91.20;;;;;;5030775;28;20516;-72
2022/10/13 07:35:21;;;;;;;29.13;14.30;;;13.90;90.80;;;;;;5027430;28;20208;-71
2022/10/13 07:37:46;;;;;;;32.60;14.20;;;13.90;90.80;;;;;;5030042;28;20184;-70
2022/10/13 07:40:12;;;;;;;30.37;13.43;;;14.00;90.80;;;;;;5031932;28;20420;-72
2022/10/13 07:42:37;;;;;;;29.83;13.23;;;14.10;90.60;;;;;;5033237;28;20197;-71
2022/10/13 07:45:03;;;;;;;33.47;15.07;;;14.00;90.30;;;;;;5031748;28;20228;-72
2022/10/13 07:47:29;;;;;;;33.33;13.90;;;14.00;90.40;;;;;;5030919;28;20173;-70
2022/10/13 07:49:55;;;;;;;25.33;12.03;;;14.00;90.60;;;;;;5029801;28;20443;-71
2022/10/13 07:52:20;;;;;;;33.63;13.50;;;14.00;90.70;;;;;;5031238;28;20221;-72
2022/10/13 07:54:46;;;;;;;29.40;12.30;;;14.10;90.50;;;;;;5032622;28;20181;-72
2022/10/13 07:57:12;;;;;;;27.10;13.20;;;14.20;90.30;;;;;;5028936;28;20209;-71
2022/10/13 07:59:37;;;;;;;31.10;13.30;;;14.20;90.10;;;;;;5030510;28;20245;-71
2022/10/13 08:02:03;;;;;;;39.77;14.97;;;14.20;90.10;;;;;;5030367;28;20328;-72
2022/10/13 08:04:30;;;;;;;29.37;12.03;;;14.20;90.20;;;;;;5028916;28;20304;-73
2022/10/13 08:06:56;;;;;;;28.93;13.60;;;14.30;90.30;;;;;;5026224;28;20201;-72
2022/10/13 08:09:21;;;;;;;27.43;13.47;;;14.40;90.00;;;;;;5029753;28;20416;-71
2022/10/13 08:11:47;;;;;;;27.00;13.40;;;14.50;89.20;;;;;;5029115;28;20499;-72
2022/10/13 08:14:13;;;;;;;26.00;11.97;;;14.50;88.90;;;;;;5030059;28;20320;-70
2022/10/13 08:16:40;;;;;;;20.70;11.57;;;14.50;89.00;;;;;;5025794;28;20901;-71
2022/10/13 08:19:06;;;;;;;31.67;12.80;;;14.60;88.40;;;;;;5029844;28;20668;-72
2022/10/13 08:21:32;;;;;;;27.83;11.93;;;14.50;88.30;;;;;;5029499;28;20420;-70
2022/10/13 08:23:57;;;;;;;31.13;12.27;;;14.50;88.40;;;;;;5029655;28;20240;-72
2022/10/13 08:26:26;;;;;;;21.17;11.60;;;14.40;88.70;;;;;;5027675;28;20422;-70
2022/10/13 08:28:51;;;;;;;24.20;12.23;;;14.50;89.00;;;;;;5029954;28;20323;-71
2022/10/13 08:31:18;;;;;;;27.50;11.77;;;14.50;88.70;;;;;;5029295;28;20885;-72
2022/10/13 08:33:46;;;;;;;23.23;11.10;;;14.60;88.60;;;;;;5029655;28;20185;-71
2022/10/13 08:36:13;;;;;;;29.20;12.13;;;14.60;88.30;;;;;;5025461;28;20456;-73
2022/10/13 08:38:39;;;;;;;25.77;10.90;;;14.70;88.40;;;;;;5030047;28;20421;-71
2022/10/13 08:41:15;;;;;;;21.90;11.00;;;14.90;88.10;;;;;;5029358;28;20569;-72
2022/10/13 08:43:44;;;;;;;28.83;11.73;;;15.00;87.30;;;;;;5029578;28;20463;-70
2022/10/13 08:46:12;;;;;;;15.50;9.20;;;15.10;87.60;;;;;;5026907;28;20452;-73
2022/10/13 08:48:41;;;;;;;20.17;10.53;;;15.20;86.20;;;;;;5028589;28;20425;-73
2022/10/13 08:51:07;;;;;;;21.30;11.43;;;15.30;85.70;;;;;;5026109;28;20538;-73
2022/10/13 08:53:39;;;;;;;21.47;10.37;;;15.30;85.30;;;;;;5029522;28;20416;-72
2022/10/13 08:56:12;;;;;;;17.63;8.63;;;15.40;85.50;;;;;;5023471;28;20213;-71
2022/10/13 08:58:40;;;;;;;19.20;9.43;;;15.40;84.90;;;;;;5029876;28;20432;-72
2022/10/13 09:01:17;;;;;;;20.50;9.50;;;15.30;85.00;;;;;;5027121;28;20425;-70
2022/10/13 09:04:20;;;;;;;19.80;10.50;;;15.30;85.50;;;;;;5029227;28;20469;-73
2022/10/13 09:06:57;;;;;;;21.20;9.57;;;15.50;85.30;;;;;;5026827;28;20550;-71
2022/10/13 09:09:22;;;;;;;18.60;9.63;;;15.60;84.60;;;;;;5030097;28;20417;-72
2022/10/13 09:11:49;;;;;;;22.33;10.10;;;15.70;84.70;;;;;;5031388;28;20523;-70
2022/10/13 09:14:22;;;;;;;19.90;9.87;;;15.80;84.30;;;;;;5033995;28;20179;-71
2022/10/13 09:16:49;;;;;;;23.07;9.43;;;15.90;83.80;;;;;;5029609;28;20453;-72
2022/10/13 09:19:21;;;;;;;15.30;8.53;;;15.90;83.60;;;;;;5033151;28;20470;-73
2022/10/13 09:21:48;;;;;;;19.73;8.87;;;16.00;83.40;;;;;;5033160;28;20488;-73
2022/10/13 09:24:17;;;;;;;19.87;9.10;;;16.10;83.10;;;;;;5035487;28;20485;-72
2022/10/13 09:26:44;;;;;;;20.17;9.63;;;16.10;82.40;;;;;;5035984;28;20506;-73
2022/10/13 09:29:23;;;;;;;21.63;9.80;;;16.20;82.40;;;;;;5039399;28;20420;-72
2022/10/13 09:31:49;;;;;;;22.93;10.23;;;16.10;82.40;;;;;;5037951;28;20418;-72
2022/10/13 09:34:18;;;;;;;15.70;7.93;;;16.20;82.50;;;;;;5040021;28;20412;-72
2022/10/13 09:37:02;;;;;;;16.37;8.10;;;16.20;82.20;;;;;;5038735;28;20501;-71
2022/10/13 09:39:28;;;;;;;23.40;9.37;;;16.10;82.70;;;;;;5035732;28;20434;-71
2022/10/13 09:42:27;;;;;;;17.90;8.47;;;16.10;83.10;;;;;;5035877;28;20441;-71
2022/10/13 09:45:11;;;;;;;18.80;8.90;;;16.30;82.80;;;;;;5043175;28;20875;-70
2022/10/13 09:47:37;;;;;;;13.50;7.40;;;16.40;82.10;;;;;;5034312;28;20459;-72
2022/10/13 09:50:16;;;;;;;17.50;8.77;;;16.40;82.10;;;;;;5032424;28;20466;-72
2022/10/13 09:52:44;;;;;;;31.20;8.97;;;16.50;81.70;;;;;;5034569;28;20422;-72
2022/10/13 09:55:31;;;;;;;19.07;8.93;;;16.40;81.50;;;;;;5032750;28;20524;-71
2022/10/13 09:58:05;;;;;;;15.13;7.73;;;16.30;82.20;;;;;;5033942;28;20934;-71
2022/10/13 10:00:32;;;;;;;14.20;7.20;;;16.30;82.10;;;;;;5034743;28;20429;-72
2022/10/13 10:03:12;;;;;;;21.20;8.40;;;16.40;82.10;;;;;;5035290;28;20420;-74
2022/10/13 10:06:01;;;;;;;21.07;8.40;;;16.50;81.50;;;;;;5034527;28;20470;-72
2022/10/13 10:08:50;;;;;;;16.23;8.17;;;16.50;81.80;;;;;;5032537;28;20423;-72
2022/10/13 10:11:38;;;;;;;15.03;8.60;;;16.50;81.70;;;;;;5035194;28;20758;-73
2022/10/13 10:14:36;;;;;;;16.87;8.23;;;16.50;81.80;;;;;;5030829;28;20988;-72
2022/10/13 10:17:11;;;;;;;13.03;7.20;;;16.60;81.50;;;;;;4988687;28;20881;-72
2022/10/13 10:20:01;;;;;;;17.67;8.30;;;16.50;81.50;;;;;;4990773;28;20429;-74
2022/10/13 10:22:41;;;;;;;14.50;8.43;;;16.60;81.40;;;;;;4987890;28;20417;-70
2022/10/13 10:25:28;;;;;;;14.20;8.53;;;16.70;81.40;;;;;;4990681;28;20574;-73
2022/10/13 10:28:15;;;;;;;20.33;8.67;;;16.60;81.40;;;;;;4992188;28;20443;-73
2022/10/13 10:30:48;;;;;;;16.27;8.00;;;16.60;81.50;;;;;;4990802;28;20437;-74
2022/10/13 10:33:22;;;;;;;14.70;7.20;;;16.60;81.20;;;;;;4992707;28;20455;-72
2022/10/13 10:36:07;;;;;;;19.50;7.90;;;16.60;81.50;;;;;;4991572;28;20846;-73
2022/10/13 10:38:41;;;;;;;23.73;9.37;;;16.60;81.40;;;;;;4992317;28;20436;-72
2022/10/13 10:41:30;;;;;;;18.60;8.50;;;16.70;81.20;;;;;;4992561;28;20869;-71
2022/10/13 10:44:05;;;;;;;17.33;8.60;;;16.70;81.10;;;;;;4992810;28;20488;-72
2022/10/13 10:46:35;;;;;;;15.40;8.17;;;16.80;80.80;;;;;;4992706;28;20503;-72
2022/10/13 10:49:10;;;;;;;17.20;8.30;;;16.80;80.80;;;;;;4994215;28;20511;-73
2022/10/13 10:51:37;;;;;;;14.13;7.57;;;16.70;80.60;;;;;;4992862;28;20468;-71
2022/10/13 10:54:23;;;;;;;14.20;7.90;;;16.70;80.50;;;;;;5030169;28;20943;-74
2022/10/13 10:57:24;;;;;;;14.60;7.30;;;16.80;80.80;;;;;;5014300;28;20538;-71
2022/10/13 10:59:49;;;;;;;15.77;7.53;;;16.90;80.50;;;;;;5025788;28;20441;-72
2022/10/13 11:02:35;;;;;;;14.27;7.90;;;17.00;79.90;;;;;;5031128;28;20450;-73
2022/10/13 11:05:01;;;;;;;13.47;8.30;;;17.10;79.70;;;;;;5030442;28;20217;-69
2022/10/13 11:07:27;;;;;;;17.20;8.33;;;17.10;79.00;;;;;;5028622;28;20443;-70
2022/10/13 11:09:56;;;;;;;17.60;9.10;;;17.10;78.90;;;;;;5030907;28;20519;-73
2022/10/13 11:12:21;;;;;;;17.97;9.03;;;17.10;78.30;;;;;;5030395;28;20267;-73
2022/10/13 11:15:04;;;;;;;16.90;7.23;;;17.10;78.00;;;;;;5031372;28;20503;-71
2022/10/13 11:17:38;;;;;;;13.10;7.50;;;17.20;77.80;;;;;;5029863;28;20193;-71
2022/10/13 11:20:19;;;;;;;14.57;7.67;;;17.20;77.40;;;;;;5029781;28;21150;-71
2022/10/13 11:22:56;;;;;;;17.30;8.63;;;17.40;77.70;;;;;;5032042;28;20419;-72
2022/10/13 11:25:42;;;;;;;17.13;8.53;;;17.40;77.10;;;;;;5027984;28;20473;-71
2022/10/13 11:28:22;;;;;;;13.80;7.33;;;17.40;77.60;;;;;;5026068;28;20412;-71
2022/10/13 11:31:09;;;;;;;15.10;8.07;;;17.40;77.40;;;;;;5027393;28;20944;-70
2022/10/13 11:33:38;;;;;;;13.90;7.20;;;17.40;77.30;;;;;;5031399;28;20419;-72
2022/10/13 11:36:32;;;;;;;14.30;7.30;;;17.40;77.60;;;;;;5029193;28;20505;-73
2022/10/13 11:39:28;;;;;;;19.97;8.33;;;17.30;77.60;;;;;;4989064;28;20535;-72
2022/10/13 11:42:19;;;;;;;16.80;8.27;;;17.30;78.00;;;;;;4989853;28;20441;-71
2022/10/13 11:44:56;;;;;;;17.27;6.87;;;17.40;77.70;;;;;;4992300;28;20505;-72
2022/10/13 11:47:55;;;;;;;15.80;7.60;;;17.50;77.80;;;;;;4989365;28;20534;-71
2022/10/13 11:50:33;;;;;;;12.10;6.93;;;17.60;77.30;;;;;;4990102;28;20441;-72
2022/10/13 11:53:17;;;;;;;12.73;7.27;;;17.80;77.30;;;;;;4985882;28;20954;-72
2022/10/13 11:55:57;;;;;;;14.00;7.13;;;17.90;76.10;;;;;;4989692;28;20630;-72
2022/10/13 11:58:25;;;;;;;10.83;6.90;;;18.00;75.90;;;;;;4989557;28;20436;-72
2022/10/13 12:00:52;;;;;;;11.77;7.37;;;18.10;75.90;;;;;;4986744;28;20445;-71
2022/10/13 12:03:29;;;;;;;16.63;8.10;;;18.30;75.50;;;;;;4988413;28;20469;-73
2022/10/13 12:06:15;;;;;;;12.43;7.43;;;18.40;74.50;;;;;;4986340;28;20466;-72
2022/10/13 12:08:48;;;;;;;12.77;6.97;;;18.60;74.00;;;;;;4987567;28;21002;-73
2022/10/13 12:11:29;;;;;;;10.13;6.30;;;18.70;73.30;;;;;;4974171;28;20423;-71
2022/10/13 12:13:55;;;;;;;16.27;7.30;;;18.60;72.70;;;;;;4988436;28;20425;-71
2022/10/13 12:16:21;;;;;;;9.63;6.37;;;18.40;72.70;;;;;;5013164;28;20464;-70
2022/10/13 12:18:47;;;;;;;9.13;5.80;;;18.50;73.30;;;;;;5030174;28;20425;-72
2022/10/13 12:21:16;;;;;;;11.30;5.20;;;18.40;73.60;;;;;;5030131;28;20197;-73
2022/10/13 12:23:42;;;;;;;13.03;6.17;;;18.50;73.70;;;;;;5029932;28;20472;-71
2022/10/13 12:26:17;;;;;;;14.33;6.20;;;18.60;73.60;;;;;;5027287;28;20449;-71
2022/10/13 12:28:50;;;;;;;12.97;6.57;;;18.80;72.70;;;;;;5028965;28;20691;-71
2022/10/13 12:31:20;;;;;;;11.33;6.23;;;18.80;71.30;;;;;;5027935;28;20432;-71
2022/10/13 12:33:58;;;;;;;9.47;5.90;;;18.80;71.70;;;;;;5031315;28;20424;-71
2022/10/13 12:36:30;;;;;;;10.20;5.40;;;19.00;72.00;;;;;;5029420;28;20458;-70
2022/10/13 12:39:02;;;;;;;12.07;5.80;;;19.20;71.60;;;;;;5030355;28;20426;-72
2022/10/13 12:41:34;;;;;;;8.20;5.23;;;19.50;70.70;;;;;;5026614;28;20517;-72
2022/10/13 12:44:01;;;;;;;9.97;5.67;;;19.60;69.20;;;;;;5024027;28;20492;-70
2022/10/13 12:46:42;;;;;;;9.30;6.10;;;19.80;69.20;;;;;;5026644;28;20855;-73
2022/10/13 12:49:14;;;;;;;12.27;5.83;;;19.80;69.90;;;;;;5025025;28;20469;-71